sensor_id;sensor_type;location;lat;lon;timestamp;temperature;humidity
5222;DHT22;2630;52.036;8.514;2022-08-21T00:02:16;15.70;99.90
5222;DHT22;2630;52.036;8.514;2022-08-21T00:04:42;15.60;99.90
5222;DHT22;2630;52.036;8.514;2022-08-21T00:07:07;15.60;99.90
5222;DHT22;2630;52.036;8.514;2022-08-21T00:09:33;15.60;99.90
5222;DHT22;2630;52.036;8.514;2022-08-21T00:11:58;15.60;99.90
5222;DHT22;2630;52.036;8.514;2022-08-21T00:14:24;15.60;99.90
5222;DHT22;2630;52.036;8.514;2022-08-21T00:16:50;15.50;99.90
5222;DHT22;2630;52.036;8.514;2022-08-21T00:19:15;15.50;99.90
5222;DHT22;2630;52.036;8.514;2022-08-21T00:21:41;15.60;99.90
5222;DHT22;2630;52.036;8.514;2022-08-21T00:26:33;15.50;99.90
5222;DHT22;2630;52.036;8.514;2022-08-21T00:31:24;15.50;99.90
5222;DHT22;2630;52.036;8.514;2022-08-21T00:33:50;15.50;99.90
5222;DHT22;2630;52.036;8.514;2022-08-21T00:36:16;15.50;99.90
5222;DHT22;2630;52.036;8.514;2022-08-21T00:38:42;15.50;99.90
5222;DHT22;2630;52.036;8.514;2022-08-21T00:41:09;15.60;99.90
5222;DHT22;2630;52.036;8.514;2022-08-21T00:43:37;15.60;99.90
5222;DHT22;2630;52.036;8.514;2022-08-21T00:46:05;15.60;99.90
5222;DHT22;2630;52.036;8.514;2022-08-21T00:48:31;15.70;99.90
5222;DHT22;2630;52.036;8.514;2022-08-21T00:53:30;15.60;99.90
5222;DHT22;2630;52.036;8.514;2022-08-21T00:55:57;15.60;99.90
5222;DHT22;2630;52.036;8.514;2022-08-21T00:58:24;15.60;99.90
5222;DHT22;2630;52.036;8.514;2022-08-21T01:00:50;15.70;99.90
5222;DHT22;2630;52.036;8.514;2022-08-21T01:03:21;15.60;99.90
5222;DHT22;2630;52.036;8.514;2022-08-21T01:05:47;15.60;99.90
5222;DHT22;2630;52.036;8.514;2022-08-21T01:08:14;15.60;99.90
5222;DHT22;2630;52.036;8.514;2022-08-21T01:10:40;15.50;99.90
5222;DHT22;2630;52.036;8.514;2022-08-21T01:13:07;15.50;99.90
5222;DHT22;2630;52.036;8.514;2022-08-21T01:15:37;15.50;99.90
5222;DHT22;2630;52.036;8.514;2022-08-21T01:18:06;15.50;99.90
5222;DHT22;2630;52.036;8.514;2022-08-21T01:20:35;15.40;99.90
5222;DHT22;2630;52.036;8.514;2022-08-21T01:23:02;15.40;99.90
5222;DHT22;2630;52.036;8.514;2022-08-21T01:25:28;15.50;99.90
5222;DHT22;2630;52.036;8.514;2022-08-21T01:27:54;15.40;99.90
5222;DHT22;2630;52.036;8.514;2022-08-21T01:30:24;15.50;99.90
5222;DHT22;2630;52.036;8.514;2022-08-21T01:35:19;15.50;99.90
5222;DHT22;2630;52.036;8.514;2022-08-21T01:37:46;15.50;99.90
5222;DHT22;2630;52.036;8.514;2022-08-21T01:40:15;15.50;99.90
5222;DHT22;2630;52.036;8.514;2022-08-21T01:42:43;15.30;99.90
5222;DHT22;2630;52.036;8.514;2022-08-21T01:45:09;15.30;99.90
5222;DHT22;2630;52.036;8.514;2022-08-21T01:47:35;15.30;99.90
5222;DHT22;2630;52.036;8.514;2022-08-21T01:54:55;15.40;99.90
5222;DHT22;2630;52.036;8.514;2022-08-21T01:57:21;15.40;99.90
5222;DHT22;2630;52.036;8.514;2022-08-21T01:59:46;15.30;99.90
5222;DHT22;2630;52.036;8.514;2022-08-21T02:02:12;15.30;99.90
5222;DHT22;2630;52.036;8.514;2022-08-21T02:04:38;15.30;99.90
5222;DHT22;2630;52.036;8.514;2022-08-21T02:07:03;15.20;99.90
5222;DHT22;2630;52.036;8.514;2022-08-21T02:09:29;15.30;99.90
5222;DHT22;2630;52.036;8.514;2022-08-21T02:11:55;15.30;99.90
5222;DHT22;2630;52.036;8.514;2022-08-21T02:16:47;15.40;99.90
5222;DHT22;2630;52.036;8.514;2022-08-21T02:19:14;15.50;99.90
5222;DHT22;2630;52.036;8.514;2022-08-21T02:21:40;15.50;99.90
5222;DHT22;2630;52.036;8.514;2022-08-21T02:26:32;15.60;99.90
5222;DHT22;2630;52.036;8.514;2022-08-21T02:28:58;15.60;99.90
5222;DHT22;2630;52.036;8.514;2022-08-21T02:36:16;15.60;99.90
5222;DHT22;2630;52.036;8.514;2022-08-21T02:43:39;15.50;99.90
5222;DHT22;2630;52.036;8.514;2022-08-21T02:46:06;15.40;99.90
5222;DHT22;2630;52.036;8.514;2022-08-21T02:48:33;15.30;99.90
5222;DHT22;2630;52.036;8.514;2022-08-21T02:53:28;15.10;99.90
5222;DHT22;2630;52.036;8.514;2022-08-21T02:55:56;15.10;99.90
5222;DHT22;2630;52.036;8.514;2022-08-21T02:58:31;15.00;99.90
5222;DHT22;2630;52.036;8.514;2022-08-21T03:00:58;15.00;99.90
5222;DHT22;2630;52.036;8.514;2022-08-21T03:03:25;15.00;99.90
5222;DHT22;2630;52.036;8.514;2022-08-21T03:08:18;15.00;99.90
5222;DHT22;2630;52.036;8.514;2022-08-21T03:10:48;15.00;99.90
5222;DHT22;2630;52.036;8.514;2022-08-21T03:13:15;15.00;99.90
5222;DHT22;2630;52.036;8.514;2022-08-21T03:18:10;14.90;99.90
5222;DHT22;2630;52.036;8.514;2022-08-21T03:20:37;15.10;99.90
5222;DHT22;2630;52.036;8.514;2022-08-21T03:23:04;15.10;99.90
5222;DHT22;2630;52.036;8.514;2022-08-21T03:25:30;15.00;99.90
5222;DHT22;2630;52.036;8.514;2022-08-21T03:27:58;15.10;99.90
5222;DHT22;2630;52.036;8.514;2022-08-21T03:30:23;15.20;99.90
5222;DHT22;2630;52.036;8.514;2022-08-21T03:35:17;15.20;99.90
5222;DHT22;2630;52.036;8.514;2022-08-21T03:37:43;15.20;99.90
5222;DHT22;2630;52.036;8.514;2022-08-21T03:40:11;15.30;99.90
5222;DHT22;2630;52.036;8.514;2022-08-21T03:42:37;15.20;99.90
5222;DHT22;2630;52.036;8.514;2022-08-21T03:45:03;15.30;99.90
5222;DHT22;2630;52.036;8.514;2022-08-21T03:47:28;15.40;99.90
5222;DHT22;2630;52.036;8.514;2022-08-21T03:52:20;15.50;99.90
5222;DHT22;2630;52.036;8.514;2022-08-21T03:54:45;15.50;99.90
5222;DHT22;2630;52.036;8.514;2022-08-21T03:57:11;15.50;99.90
5222;DHT22;2630;52.036;8.514;2022-08-21T04:02:06;15.60;99.90
5222;DHT22;2630;52.036;8.514;2022-08-21T04:04:32;15.50;99.90
5222;DHT22;2630;52.036;8.514;2022-08-21T04:06:58;15.50;99.90
5222;DHT22;2630;52.036;8.514;2022-08-21T04:09:24;15.60;99.90
5222;DHT22;2630;52.036;8.514;2022-08-21T04:11:50;15.60;99.90
5222;DHT22;2630;52.036;8.514;2022-08-21T04:14:17;15.40;99.90
5222;DHT22;2630;52.036;8.514;2022-08-21T04:16:43;15.50;99.90
5222;DHT22;2630;52.036;8.514;2022-08-21T04:19:11;15.40;99.90
5222;DHT22;2630;52.036;8.514;2022-08-21T04:21:38;15.50;99.90
5222;DHT22;2630;52.036;8.514;2022-08-21T04:24:05;15.40;99.90
5222;DHT22;2630;52.036;8.514;2022-08-21T04:26:31;15.40;99.90
5222;DHT22;2630;52.036;8.514;2022-08-21T04:28:57;15.30;99.90
5222;DHT22;2630;52.036;8.514;2022-08-21T04:31:24;15.20;99.90
5222;DHT22;2630;52.036;8.514;2022-08-21T04:33:50;15.20;99.90
5222;DHT22;2630;52.036;8.514;2022-08-21T04:36:16;15.20;99.90
5222;DHT22;2630;52.036;8.514;2022-08-21T04:38:42;15.20;99.90
5222;DHT22;2630;52.036;8.514;2022-08-21T04:41:08;15.10;99.90
5222;DHT22;2630;52.036;8.514;2022-08-21T04:43:34;15.10;99.90
5222;DHT22;2630;52.036;8.514;2022-08-21T04:46:00;15.20;99.90
5222;DHT22;2630;52.036;8.514;2022-08-21T04:48:26;15.20;99.90
5222;DHT22;2630;52.036;8.514;2022-08-21T04:51:11;15.10;99.90
5222;DHT22;2630;52.036;8.514;2022-08-21T04:58:35;15.00;99.90
5222;DHT22;2630;52.036;8.514;2022-08-21T05:01:02;15.10;99.90
5222;DHT22;2630;52.036;8.514;2022-08-21T05:03:30;15.10;99.90
5222;DHT22;2630;52.036;8.514;2022-08-21T05:05:58;15.10;99.90
5222;DHT22;2630;52.036;8.514;2022-08-21T05:10:51;15.10;99.90
5222;DHT22;2630;52.036;8.514;2022-08-21T05:15:43;15.20;99.90
5222;DHT22;2630;52.036;8.514;2022-08-21T05:18:09;15.20;99.90
5222;DHT22;2630;52.036;8.514;2022-08-21T05:20:35;15.30;99.90
5222;DHT22;2630;52.036;8.514;2022-08-21T05:23:05;15.30;99.90
5222;DHT22;2630;52.036;8.514;2022-08-21T05:25:33;15.40;99.90
5222;DHT22;2630;52.036;8.514;2022-08-21T05:27:58;15.40;99.90
5222;DHT22;2630;52.036;8.514;2022-08-21T05:30:24;15.50;99.90
5222;DHT22;2630;52.036;8.514;2022-08-21T05:32:59;15.60;99.90
5222;DHT22;2630;52.036;8.514;2022-08-21T05:40:17;15.80;99.90
5222;DHT22;2630;52.036;8.514;2022-08-21T05:42:43;15.90;99.90
5222;DHT22;2630;52.036;8.514;2022-08-21T05:45:09;16.10;99.90
5222;DHT22;2630;52.036;8.514;2022-08-21T05:47:35;16.30;99.90
5222;DHT22;2630;52.036;8.514;2022-08-21T05:50:01;16.40;99.90
5222;DHT22;2630;52.036;8.514;2022-08-21T05:52:26;16.60;99.90
5222;DHT22;2630;52.036;8.514;2022-08-21T05:54:52;16.70;99.90
5222;DHT22;2630;52.036;8.514;2022-08-21T05:57:20;17.00;99.90
5222;DHT22;2630;52.036;8.514;2022-08-21T05:59:46;17.40;99.90
5222;DHT22;2630;52.036;8.514;2022-08-21T06:02:11;17.80;99.90
5222;DHT22;2630;52.036;8.514;2022-08-21T06:04:40;18.20;99.90
5222;DHT22;2630;52.036;8.514;2022-08-21T06:09:33;18.70;99.90
5222;DHT22;2630;52.036;8.514;2022-08-21T06:12:06;18.60;99.90
5222;DHT22;2630;52.036;8.514;2022-08-21T06:14:34;18.60;99.90
5222;DHT22;2630;52.036;8.514;2022-08-21T06:17:08;18.60;99.90
5222;DHT22;2630;52.036;8.514;2022-08-21T06:22:01;18.60;99.90
5222;DHT22;2630;52.036;8.514;2022-08-21T06:26:54;18.70;99.90
5222;DHT22;2630;52.036;8.514;2022-08-21T06:29:20;18.80;99.90
5222;DHT22;2630;52.036;8.514;2022-08-21T06:31:48;18.90;99.90
5222;DHT22;2630;52.036;8.514;2022-08-21T06:34:14;18.90;99.90
5222;DHT22;2630;52.036;8.514;2022-08-21T06:36:41;18.90;99.90
5222;DHT22;2630;52.036;8.514;2022-08-21T06:39:06;18.80;99.90
5222;DHT22;2630;52.036;8.514;2022-08-21T06:41:32;18.80;99.90
5222;DHT22;2630;52.036;8.514;2022-08-21T06:43:58;18.80;99.90
5222;DHT22;2630;52.036;8.514;2022-08-21T06:46:25;18.80;99.90
5222;DHT22;2630;52.036;8.514;2022-08-21T06:51:18;18.80;99.90
5222;DHT22;2630;52.036;8.514;2022-08-21T06:56:10;18.90;99.90
5222;DHT22;2630;52.036;8.514;2022-08-21T06:58:36;19.00;99.90
5222;DHT22;2630;52.036;8.514;2022-08-21T07:01:02;19.00;99.90
5222;DHT22;2630;52.036;8.514;2022-08-21T07:03:35;19.10;99.90
5222;DHT22;2630;52.036;8.514;2022-08-21T07:06:01;19.20;99.90
5222;DHT22;2630;52.036;8.514;2022-08-21T07:08:28;19.30;99.90
5222;DHT22;2630;52.036;8.514;2022-08-21T07:10:58;19.30;99.90
5222;DHT22;2630;52.036;8.514;2022-08-21T07:18:17;19.50;99.90
5222;DHT22;2630;52.036;8.514;2022-08-21T07:20:43;19.50;99.90
5222;DHT22;2630;52.036;8.514;2022-08-21T07:23:12;19.60;99.90
5222;DHT22;2630;52.036;8.514;2022-08-21T07:25:38;19.60;99.90
5222;DHT22;2630;52.036;8.514;2022-08-21T07:28:04;19.70;99.90
5222;DHT22;2630;52.036;8.514;2022-08-21T07:35:23;19.80;99.90
5222;DHT22;2630;52.036;8.514;2022-08-21T07:37:49;19.80;99.90
5222;DHT22;2630;52.036;8.514;2022-08-21T07:40:15;19.90;99.90
5222;DHT22;2630;52.036;8.514;2022-08-21T07:42:44;20.00;99.90
5222;DHT22;2630;52.036;8.514;2022-08-21T07:45:11;20.10;99.90
5222;DHT22;2630;52.036;8.514;2022-08-21T07:47:36;20.20;99.90
5222;DHT22;2630;52.036;8.514;2022-08-21T07:52:29;20.30;99.90
5222;DHT22;2630;52.036;8.514;2022-08-21T07:59:47;20.40;99.90
5222;DHT22;2630;52.036;8.514;2022-08-21T08:02:25;20.50;99.90
5222;DHT22;2630;52.036;8.514;2022-08-21T08:04:52;20.60;99.90
5222;DHT22;2630;52.036;8.514;2022-08-21T08:07:18;20.60;99.90
5222;DHT22;2630;52.036;8.514;2022-08-21T08:09:44;20.70;99.90
5222;DHT22;2630;52.036;8.514;2022-08-21T08:14:36;20.80;99.90
5222;DHT22;2630;52.036;8.514;2022-08-21T08:17:02;20.80;99.90
5222;DHT22;2630;52.036;8.514;2022-08-21T08:19:28;21.00;99.90
5222;DHT22;2630;52.036;8.514;2022-08-21T08:21:54;21.10;99.90
5222;DHT22;2630;52.036;8.514;2022-08-21T08:24:20;21.20;99.90
5222;DHT22;2630;52.036;8.514;2022-08-21T08:29:12;21.40;99.90
5222;DHT22;2630;52.036;8.514;2022-08-21T08:34:04;21.50;99.90
5222;DHT22;2630;52.036;8.514;2022-08-21T08:36:37;21.70;99.90
5222;DHT22;2630;52.036;8.514;2022-08-21T08:39:04;21.80;99.90
5222;DHT22;2630;52.036;8.514;2022-08-21T08:41:31;21.90;99.90
5222;DHT22;2630;52.036;8.514;2022-08-21T08:44:07;21.80;99.90
5222;DHT22;2630;52.036;8.514;2022-08-21T08:46:41;21.80;99.90
5222;DHT22;2630;52.036;8.514;2022-08-21T08:49:23;22.00;99.90
5222;DHT22;2630;52.036;8.514;2022-08-21T08:57:02;22.40;99.90
5222;DHT22;2630;52.036;8.514;2022-08-21T08:59:40;22.80;99.90
5222;DHT22;2630;52.036;8.514;2022-08-21T09:02:13;23.20;99.90
5222;DHT22;2630;52.036;8.514;2022-08-21T09:04:40;23.50;99.90
5222;DHT22;2630;52.036;8.514;2022-08-21T09:15:12;26.80;99.90
5222;DHT22;2630;52.036;8.514;2022-08-21T09:26:14;29.70;99.90
5222;DHT22;2630;52.036;8.514;2022-08-21T09:28:40;31.60;99.90
5222;DHT22;2630;52.036;8.514;2022-08-21T09:31:10;33.50;96.60
5222;DHT22;2630;52.036;8.514;2022-08-21T09:33:37;30.20;92.40
5222;DHT22;2630;52.036;8.514;2022-08-21T09:36:03;32.40;93.50
5222;DHT22;2630;52.036;8.514;2022-08-21T09:38:30;31.30;93.90
5222;DHT22;2630;52.036;8.514;2022-08-21T09:41:06;31.30;93.30
5222;DHT22;2630;52.036;8.514;2022-08-21T09:43:33;31.80;94.50
5222;DHT22;2630;52.036;8.514;2022-08-21T09:46:31;32.60;92.90
5222;DHT22;2630;52.036;8.514;2022-08-21T09:49:02;32.10;93.10
5222;DHT22;2630;52.036;8.514;2022-08-21T09:51:33;32.80;91.70
5222;DHT22;2630;52.036;8.514;2022-08-21T09:56:35;34.00;87.80
5222;DHT22;2630;52.036;8.514;2022-08-21T09:59:31;32.30;87.80
5222;DHT22;2630;52.036;8.514;2022-08-21T10:02:00;32.00;89.90
5222;DHT22;2630;52.036;8.514;2022-08-21T10:04:33;32.50;89.80
5222;DHT22;2630;52.036;8.514;2022-08-21T10:09:33;33.60;85.30
5222;DHT22;2630;52.036;8.514;2022-08-21T10:14:54;31.80;90.10
5222;DHT22;2630;52.036;8.514;2022-08-21T10:17:29;31.10;90.80
5222;DHT22;2630;52.036;8.514;2022-08-21T10:20:20;30.10;91.30
5222;DHT22;2630;52.036;8.514;2022-08-21T10:29:03;28.80;93.70
5222;DHT22;2630;52.036;8.514;2022-08-21T10:31:55;27.50;95.20
5222;DHT22;2630;52.036;8.514;2022-08-21T10:34:44;26.50;98.10
5222;DHT22;2630;52.036;8.514;2022-08-21T10:46:00;26.80;98.00
5222;DHT22;2630;52.036;8.514;2022-08-21T10:51:09;25.90;98.90
5222;DHT22;2630;52.036;8.514;2022-08-21T10:56:24;25.50;99.90
5222;DHT22;2630;52.036;8.514;2022-08-21T10:59:19;25.50;99.90
5222;DHT22;2630;52.036;8.514;2022-08-21T11:02:17;25.30;99.90
5222;DHT22;2630;52.036;8.514;2022-08-21T11:07:19;24.60;99.90
5222;DHT22;2630;52.036;8.514;2022-08-21T11:09:48;24.60;99.90
5222;DHT22;2630;52.036;8.514;2022-08-21T11:12:46;24.60;99.90
5222;DHT22;2630;52.036;8.514;2022-08-21T11:15:34;24.60;99.90
5222;DHT22;2630;52.036;8.514;2022-08-21T11:18:17;24.70;99.90
5222;DHT22;2630;52.036;8.514;2022-08-21T11:26:04;24.60;99.90
5222;DHT22;2630;52.036;8.514;2022-08-21T11:28:37;24.50;99.90
5222;DHT22;2630;52.036;8.514;2022-08-21T11:34:24;24.80;99.90
5222;DHT22;2630;52.036;8.514;2022-08-21T11:50:14;25.00;99.90
5222;DHT22;2630;52.036;8.514;2022-08-21T11:52:45;25.10;99.90
5222;DHT22;2630;52.036;8.514;2022-08-21T11:55:39;25.30;99.90
5222;DHT22;2630;52.036;8.514;2022-08-21T11:58:19;25.50;99.90
5222;DHT22;2630;52.036;8.514;2022-08-21T12:00:56;25.50;99.90
5222;DHT22;2630;52.036;8.514;2022-08-21T12:03:28;25.50;99.90
5222;DHT22;2630;52.036;8.514;2022-08-21T12:06:14;25.50;99.90
5222;DHT22;2630;52.036;8.514;2022-08-21T12:08:43;25.60;99.90
5222;DHT22;2630;52.036;8.514;2022-08-21T12:14:12;25.20;99.90
5222;DHT22;2630;52.036;8.514;2022-08-21T12:24:35;25.60;99.90
5222;DHT22;2630;52.036;8.514;2022-08-21T12:27:22;25.60;99.90
5222;DHT22;2630;52.036;8.514;2022-08-21T12:30:06;25.50;99.90
5222;DHT22;2630;52.036;8.514;2022-08-21T12:39:03;25.50;99.90
5222;DHT22;2630;52.036;8.514;2022-08-21T12:41:05;25.50;99.90
5222;DHT22;2630;52.036;8.514;2022-08-21T12:43:41;25.50;99.90
5222;DHT22;2630;52.036;8.514;2022-08-21T12:46:18;25.50;99.90
5222;DHT22;2630;52.036;8.514;2022-08-21T12:53:57;25.80;99.90
5222;DHT22;2630;52.036;8.514;2022-08-21T12:58:54;25.70;99.90
5222;DHT22;2630;52.036;8.514;2022-08-21T13:04:04;25.50;99.90
5222;DHT22;2630;52.036;8.514;2022-08-21T13:06:38;25.50;99.90
5222;DHT22;2630;52.036;8.514;2022-08-21T13:09:07;25.60;99.90
5222;DHT22;2630;52.036;8.514;2022-08-21T13:14:02;25.80;99.90
5222;DHT22;2630;52.036;8.514;2022-08-21T13:16:29;25.90;99.90
5222;DHT22;2630;52.036;8.514;2022-08-21T13:19:05;26.00;99.90
5222;DHT22;2630;52.036;8.514;2022-08-21T13:21:34;25.80;99.90
5222;DHT22;2630;52.036;8.514;2022-08-21T13:26:40;25.70;99.90
5222;DHT22;2630;52.036;8.514;2022-08-21T13:29:11;25.70;99.90
5222;DHT22;2630;52.036;8.514;2022-08-21T13:31:38;25.70;99.90
5222;DHT22;2630;52.036;8.514;2022-08-21T13:34:05;25.80;99.90
5222;DHT22;2630;52.036;8.514;2022-08-21T13:36:35;25.90;99.90
5222;DHT22;2630;52.036;8.514;2022-08-21T13:39:04;25.90;99.90
5222;DHT22;2630;52.036;8.514;2022-08-21T13:41:34;25.90;99.90
5222;DHT22;2630;52.036;8.514;2022-08-21T13:46:29;26.80;99.90
5222;DHT22;2630;52.036;8.514;2022-08-21T13:48:56;27.50;99.90
5222;DHT22;2630;52.036;8.514;2022-08-21T13:51:23;27.90;99.30
5222;DHT22;2630;52.036;8.514;2022-08-21T13:53:51;28.10;97.30
5222;DHT22;2630;52.036;8.514;2022-08-21T13:58:59;28.50;96.80
5222;DHT22;2630;52.036;8.514;2022-08-21T14:01:26;28.50;96.90
5222;DHT22;2630;52.036;8.514;2022-08-21T14:08:58;28.60;96.70
5222;DHT22;2630;52.036;8.514;2022-08-21T14:11:26;28.60;96.10
5222;DHT22;2630;52.036;8.514;2022-08-21T14:16:23;28.20;94.20
5222;DHT22;2630;52.036;8.514;2022-08-21T14:21:41;27.50;93.80
5222;DHT22;2630;52.036;8.514;2022-08-21T14:26:37;27.10;96.20
5222;DHT22;2630;52.036;8.514;2022-08-21T14:29:08;27.20;96.50
5222;DHT22;2630;52.036;8.514;2022-08-21T14:31:34;27.40;96.50
5222;DHT22;2630;52.036;8.514;2022-08-21T14:34:01;27.40;95.40
5222;DHT22;2630;52.036;8.514;2022-08-21T14:36:27;27.30;96.00
5222;DHT22;2630;52.036;8.514;2022-08-21T14:38:53;27.00;95.30
5222;DHT22;2630;52.036;8.514;2022-08-21T14:41:21;26.80;95.50
5222;DHT22;2630;52.036;8.514;2022-08-21T14:43:48;26.50;94.90
5222;DHT22;2630;52.036;8.514;2022-08-21T14:46:22;26.20;95.40
5222;DHT22;2630;52.036;8.514;2022-08-21T14:58:40;25.60;98.20
5222;DHT22;2630;52.036;8.514;2022-08-21T15:06:02;25.50;99.30
5222;DHT22;2630;52.036;8.514;2022-08-21T15:08:28;25.40;97.70
5222;DHT22;2630;52.036;8.514;2022-08-21T15:10:54;25.30;99.40
5222;DHT22;2630;52.036;8.514;2022-08-21T15:15:48;25.30;99.00
5222;DHT22;2630;52.036;8.514;2022-08-21T15:18:15;25.30;98.10
5222;DHT22;2630;52.036;8.514;2022-08-21T15:20:41;25.30;98.50
5222;DHT22;2630;52.036;8.514;2022-08-21T15:23:08;25.20;98.30
5222;DHT22;2630;52.036;8.514;2022-08-21T15:25:35;25.20;99.20
5222;DHT22;2630;52.036;8.514;2022-08-21T15:28:01;25.20;97.30
5222;DHT22;2630;52.036;8.514;2022-08-21T15:32:55;25.20;97.80
5222;DHT22;2630;52.036;8.514;2022-08-21T15:35:21;25.10;98.70
5222;DHT22;2630;52.036;8.514;2022-08-21T15:37:46;25.10;98.70
5222;DHT22;2630;52.036;8.514;2022-08-21T15:40:12;25.00;99.20
5222;DHT22;2630;52.036;8.514;2022-08-21T15:42:40;24.90;99.00
5222;DHT22;2630;52.036;8.514;2022-08-21T15:45:06;25.00;99.40
5222;DHT22;2630;52.036;8.514;2022-08-21T15:49:59;25.00;99.80
5222;DHT22;2630;52.036;8.514;2022-08-21T15:52:25;25.00;99.40
5222;DHT22;2630;52.036;8.514;2022-08-21T15:57:20;24.90;98.60
5222;DHT22;2630;52.036;8.514;2022-08-21T15:59:51;24.90;98.40
5222;DHT22;2630;52.036;8.514;2022-08-21T16:02:29;24.90;97.20
5222;DHT22;2630;52.036;8.514;2022-08-21T16:04:56;24.80;97.40
5222;DHT22;2630;52.036;8.514;2022-08-21T16:07:22;24.80;97.40
5222;DHT22;2630;52.036;8.514;2022-08-21T16:09:48;24.70;98.50
5222;DHT22;2630;52.036;8.514;2022-08-21T16:12:21;24.70;98.80
5222;DHT22;2630;52.036;8.514;2022-08-21T16:14:47;24.60;97.40
5222;DHT22;2630;52.036;8.514;2022-08-21T16:17:15;24.60;98.30
5222;DHT22;2630;52.036;8.514;2022-08-21T16:22:06;24.60;99.00
5222;DHT22;2630;52.036;8.514;2022-08-21T16:24:32;24.50;98.80
5222;DHT22;2630;52.036;8.514;2022-08-21T16:26:58;24.50;98.40
5222;DHT22;2630;52.036;8.514;2022-08-21T16:29:26;24.40;98.90
5222;DHT22;2630;52.036;8.514;2022-08-21T16:34:19;24.40;99.60
5222;DHT22;2630;52.036;8.514;2022-08-21T16:41:38;24.30;99.90
5222;DHT22;2630;52.036;8.514;2022-08-21T16:44:05;24.20;99.80
5222;DHT22;2630;52.036;8.514;2022-08-21T16:46:34;24.20;99.90
5222;DHT22;2630;52.036;8.514;2022-08-21T16:49:01;24.20;99.70
5222;DHT22;2630;52.036;8.514;2022-08-21T16:51:26;24.20;99.50
5222;DHT22;2630;52.036;8.514;2022-08-21T16:58:46;24.20;99.90
5222;DHT22;2630;52.036;8.514;2022-08-21T17:01:15;24.10;99.90
5222;DHT22;2630;52.036;8.514;2022-08-21T17:06:11;24.10;99.90
5222;DHT22;2630;52.036;8.514;2022-08-21T17:08:37;24.10;99.90
5222;DHT22;2630;52.036;8.514;2022-08-21T17:11:05;24.10;99.90
5222;DHT22;2630;52.036;8.514;2022-08-21T17:13:31;24.00;99.90
5222;DHT22;2630;52.036;8.514;2022-08-21T17:15:56;23.90;99.90
5222;DHT22;2630;52.036;8.514;2022-08-21T17:18:23;23.80;99.90
5222;DHT22;2630;52.036;8.514;2022-08-21T17:20:49;23.80;99.90
5222;DHT22;2630;52.036;8.514;2022-08-21T17:23:16;23.70;99.90
5222;DHT22;2630;52.036;8.514;2022-08-21T17:25:48;23.60;99.90
5222;DHT22;2630;52.036;8.514;2022-08-21T17:28:20;23.50;99.90
5222;DHT22;2630;52.036;8.514;2022-08-21T17:30:46;23.40;99.90
5222;DHT22;2630;52.036;8.514;2022-08-21T17:33:15;23.30;99.90
5222;DHT22;2630;52.036;8.514;2022-08-21T17:38:07;23.20;99.90
5222;DHT22;2630;52.036;8.514;2022-08-21T17:40:34;23.10;99.90
5222;DHT22;2630;52.036;8.514;2022-08-21T17:43:00;23.10;99.90
5222;DHT22;2630;52.036;8.514;2022-08-21T17:47:52;22.90;99.90
5222;DHT22;2630;52.036;8.514;2022-08-21T17:50:18;22.90;99.90
5222;DHT22;2630;52.036;8.514;2022-08-21T17:52:45;22.80;99.90
5222;DHT22;2630;52.036;8.514;2022-08-21T17:55:12;22.70;99.90
5222;DHT22;2630;52.036;8.514;2022-08-21T17:57:38;22.50;99.90
5222;DHT22;2630;52.036;8.514;2022-08-21T18:00:08;22.50;99.90
5222;DHT22;2630;52.036;8.514;2022-08-21T18:05:02;22.20;99.90
5222;DHT22;2630;52.036;8.514;2022-08-21T18:07:28;22.10;99.90
5222;DHT22;2630;52.036;8.514;2022-08-21T18:12:19;21.90;99.90
5222;DHT22;2630;52.036;8.514;2022-08-21T18:17:13;21.60;99.90
5222;DHT22;2630;52.036;8.514;2022-08-21T18:22:07;21.30;99.90
5222;DHT22;2630;52.036;8.514;2022-08-21T18:24:34;21.20;99.90
5222;DHT22;2630;52.036;8.514;2022-08-21T18:27:01;21.10;99.90
5222;DHT22;2630;52.036;8.514;2022-08-21T18:29:27;20.90;99.90
5222;DHT22;2630;52.036;8.514;2022-08-21T18:31:54;20.80;99.90
5222;DHT22;2630;52.036;8.514;2022-08-21T18:36:51;20.50;99.90
5222;DHT22;2630;52.036;8.514;2022-08-21T18:39:18;20.40;99.90
5222;DHT22;2630;52.036;8.514;2022-08-21T18:41:44;20.20;99.90
5222;DHT22;2630;52.036;8.514;2022-08-21T18:44:12;20.10;99.90
5222;DHT22;2630;52.036;8.514;2022-08-21T18:46:39;19.90;99.90
5222;DHT22;2630;52.036;8.514;2022-08-21T18:49:04;19.80;99.90
5222;DHT22;2630;52.036;8.514;2022-08-21T18:51:31;19.80;99.90
5222;DHT22;2630;52.036;8.514;2022-08-21T18:53:57;19.60;99.90
5222;DHT22;2630;52.036;8.514;2022-08-21T18:56:23;19.50;99.90
5222;DHT22;2630;52.036;8.514;2022-08-21T18:58:48;19.40;99.90
5222;DHT22;2630;52.036;8.514;2022-08-21T19:03:42;19.30;99.90
5222;DHT22;2630;52.036;8.514;2022-08-21T19:06:07;19.20;99.90
5222;DHT22;2630;52.036;8.514;2022-08-21T19:10:59;18.80;99.90
5222;DHT22;2630;52.036;8.514;2022-08-21T19:13:27;18.90;99.90
5222;DHT22;2630;52.036;8.514;2022-08-21T19:15:54;18.90;99.90
5222;DHT22;2630;52.036;8.514;2022-08-21T19:18:23;18.60;99.90
5222;DHT22;2630;52.036;8.514;2022-08-21T19:20:50;18.60;99.90
5222;DHT22;2630;52.036;8.514;2022-08-21T19:25:44;18.50;99.90
5222;DHT22;2630;52.036;8.514;2022-08-21T19:28:16;18.40;99.90
5222;DHT22;2630;52.036;8.514;2022-08-21T19:33:15;18.20;99.90
5222;DHT22;2630;52.036;8.514;2022-08-21T19:35:43;18.20;99.90
5222;DHT22;2630;52.036;8.514;2022-08-21T19:38:08;18.10;99.90
5222;DHT22;2630;52.036;8.514;2022-08-21T19:40:34;18.20;99.90
5222;DHT22;2630;52.036;8.514;2022-08-21T19:43:00;18.10;99.90
5222;DHT22;2630;52.036;8.514;2022-08-21T19:47:51;18.00;99.90
5222;DHT22;2630;52.036;8.514;2022-08-21T19:50:17;17.90;99.90
5222;DHT22;2630;52.036;8.514;2022-08-21T19:52:43;17.90;99.90
5222;DHT22;2630;52.036;8.514;2022-08-21T20:02:28;17.70;99.90
5222;DHT22;2630;52.036;8.514;2022-08-21T20:04:54;17.70;99.90
5222;DHT22;2630;52.036;8.514;2022-08-21T20:07:19;17.70;99.90
5222;DHT22;2630;52.036;8.514;2022-08-21T20:09:46;17.60;99.90
5222;DHT22;2630;52.036;8.514;2022-08-21T20:14:45;17.60;99.90
5222;DHT22;2630;52.036;8.514;2022-08-21T20:22:06;17.40;99.90
5222;DHT22;2630;52.036;8.514;2022-08-21T20:24:32;17.40;99.90
5222;DHT22;2630;52.036;8.514;2022-08-21T20:26:59;17.40;99.90
5222;DHT22;2630;52.036;8.514;2022-08-21T20:29:26;17.30;99.90
5222;DHT22;2630;52.036;8.514;2022-08-21T20:31:53;17.30;99.90
5222;DHT22;2630;52.036;8.514;2022-08-21T20:34:18;17.30;99.90
5222;DHT22;2630;52.036;8.514;2022-08-21T20:41:36;17.20;99.90
5222;DHT22;2630;52.036;8.514;2022-08-21T20:44:03;17.20;99.90
5222;DHT22;2630;52.036;8.514;2022-08-21T20:46:30;17.20;99.90
5222;DHT22;2630;52.036;8.514;2022-08-21T20:54:15;17.20;99.90
5222;DHT22;2630;52.036;8.514;2022-08-21T21:10:11;17.00;99.90
5222;DHT22;2630;52.036;8.514;2022-08-21T21:12:41;17.00;99.90
5222;DHT22;2630;52.036;8.514;2022-08-21T21:20:29;16.90;99.90
5222;DHT22;2630;52.036;8.514;2022-08-21T21:23:29;16.80;99.90
5222;DHT22;2630;52.036;8.514;2022-08-21T21:33:29;16.60;99.90
5222;DHT22;2630;52.036;8.514;2022-08-21T21:38:36;16.70;99.90
5222;DHT22;2630;52.036;8.514;2022-08-21T22:25:19;16.10;99.90
5222;DHT22;2630;52.036;8.514;2022-08-21T22:37:58;15.90;99.90
5222;DHT22;2630;52.036;8.514;2022-08-21T22:55:55;15.90;99.90
5222;DHT22;2630;52.036;8.514;2022-08-21T23:03:48;15.70;99.90
5222;DHT22;2630;52.036;8.514;2022-08-21T23:08:49;15.60;99.90
5222;DHT22;2630;52.036;8.514;2022-08-21T23:32:06;15.50;99.90
5222;DHT22;2630;52.036;8.514;2022-08-21T23:48:58;15.40;99.90